Terminal Aerodrome Forecast
Issued by NWS Twin Cities, MN

Home | Current Version | Previous Version | Text Only | Print | Product List | Glossary Off
Versions: 1 2 3 4 5 6 7 8 9 10 11 12 13

000
FTUS43 KMPX 051120
TAFSTC
TAF
KSTC 051120Z 0512/0612 28004KT P6SM SKC
     FM051900 21009KT P6SM SKC
     FM060000 18007KT P6SM SCT150
     FM060200 17008KT P6SM BKN100=

USA.gov is the U.S. government's official web portal to all federal, state and local government web resources and services.